Lincoln, ME

9:43 PM EDT on April 20, 2015 (GMT -0400)
Argyle Twp | | Change Station
CLOSE
Current Station
Personal Weather Station
Location: Argyle, ME
Elevation: 131 ft
Nearby Weather Stations
Active Advisory: Flood Warning

Elev 131 ft 45.11 °N, 68.66 °W | Updated 8 minutes ago

Overcast
Overcast
39.6 °F
Feels Like 40 °F
N
2.2
Wind Variable Wind from East

Today
High -- | Low -- °F
--% Chance of Precip.
Yesterday
High -- | Low -- °F
Precip. -- in
5:40 AM 7:26 PM
Waxing Crescent, 7% visible
Pressure 30.14 in
Visibility 10.0 miles
Clouds Mostly Cloudy 1400 ft
Mostly Cloudy 2200 ft
Overcast 3200 ft
Windchill 40 °F
Dew Point 39 °F
Humidity 99%
Rainfall 0.07 in
Snow Depth Not available.
UV 0 out of 12
Pollen 7.40 out of 12
Air Quality Not available.
Flu Activity Regional
SPECI KMLT 210101Z AUTO 14006KT 10SM BKN014 BKN022 OVC032 05/02 A3014 RMK AO2 T00500022

More Conditions Fewer Conditions

Pressure 30.14 in
Visibility 10.0 miles
Clouds Mostly Cloudy 1400 ft
Mostly Cloudy 2200 ft
Overcast 3200 ft
Windchill 40 °F
Dew Point 39 °F
Humidity 99%
Rainfall 0.07 in
Snow Depth Not available.
UV 0 out of 12
Pollen 7.40 out of 12
Air Quality Not available.
Flu Activity Regional
SPECI KMLT 210101Z AUTO 14006KT 10SM BKN014 BKN022 OVC032 05/02 A3014 RMK AO2 T00500022

More Conditions Fewer Conditions

10-Day Weather Forecast

Almanac

Astronomy

Apr. 20, 2015 Rise Set
Actual Time
Civil Twilight
Nautical Twilight
Astronomical Twilight
Moon
Length of Visible Light
Length of Day
Tomorrow will be .
, % of the Moon is Illuminated

Today's Extremes

State Highs State Lows

Community

WunderPhotos

Upload Photos

1,815,276 photos uploaded!

WunderBlogs® & News

Nearby

Air Quality

  Air Quality AQ Index Pollutant
Not available.

Snow Depth

Station Depth Elevation

Earthquake Activity

City Distance Mag. Time & Date
Minimum magnitude displayed is 2.5.

Coastal Water Temperatures

Place Temperature

Stations

Nearby Weather Stations

Station Location Temp. Windchill Dew Point Humidity Wind Precip. Elev Updated Type
                   
Flood Warning
Statement as of 2:59 PM EDT on April 20, 2015

The Flood Warning continues for
the Mattawamkeag River above Mattawamkeag
* until further notice... or until the warning is cancelled.
* At 14:30 PM Monday the stage was 13.5 feet
* minor flooding is occurring and minor flooding is forecast.
* Flood stage is 13.5 feet.
* Forecast... the river will continue rising to near 13.8 feet by
Wednesday evening. Additional rises may be possible thereafter.
* Impacts... minor lowland flooding is expected... and flooding of
Bancroft Road is possible.



Lat... Lon 4557 6838 4560 6819 4572 6808 4566 6794
      4551 6810 4546 6835